createdAt,value
2022-10-23T00:01:46.161Z,97818.08
2022-10-23T00:04:22.535Z,97817.32
2022-10-23T00:06:51.529Z,97817.80
2022-10-23T00:09:22.668Z,97820.73
2022-10-23T00:11:51.580Z,97824.77
2022-10-23T00:14:22.993Z,97831.65
2022-10-23T00:16:51.592Z,97833.56
2022-10-23T00:19:19.561Z,97834.48
2022-10-23T00:21:47.407Z,97839.46
2022-10-23T00:24:15.502Z,97848.67
2022-10-23T00:26:43.469Z,97856.98
2022-10-23T00:29:11.850Z,97860.08
2022-10-23T00:31:40.129Z,97864.52
2022-10-23T00:34:08.843Z,97869.21
2022-10-23T00:36:38.105Z,97869.98
2022-10-23T00:39:06.601Z,97868.20
2022-10-23T00:41:35.178Z,97868.90
2022-10-23T00:44:31.615Z,97871.85
2022-10-23T00:47:00.300Z,97871.55
2022-10-23T00:49:28.526Z,97873.86
2022-10-23T00:52:01.293Z,97878.10
2022-10-23T00:54:34.440Z,97882.07
2022-10-23T00:57:05.064Z,97879.89
2022-10-23T00:59:33.790Z,97882.95
2022-10-23T01:02:01.958Z,97876.06
2022-10-23T01:04:30.731Z,97875.05
2022-10-23T01:07:28.832Z,97872.69
2022-10-23T01:10:04.039Z,97865.82
2022-10-23T01:12:43.080Z,97863.84
2022-10-23T01:15:22.591Z,97865.02
2022-10-23T01:18:00.212Z,97864.88
2022-10-23T01:20:43.644Z,97868.52
2022-10-23T01:23:14.997Z,97870.33
2022-10-23T01:26:03.747Z,97871.94
2022-10-23T01:28:39.198Z,97872.64
2022-10-23T01:31:14.536Z,97872.70
2022-10-23T01:33:49.190Z,97874.93
2022-10-23T01:36:28.726Z,97881.00
2022-10-23T01:39:09.782Z,97888.30
2022-10-23T01:41:47.037Z,97892.17
2022-10-23T01:44:34.080Z,97893.96
2022-10-23T01:47:03.897Z,97902.02
2022-10-23T01:49:39.364Z,97901.52
2022-10-23T01:52:11.917Z,97902.86
2022-10-23T01:54:44.902Z,97904.45
2022-10-23T01:57:17.077Z,97909.23
2022-10-23T01:59:51.051Z,97906.95
2022-10-23T02:02:22.784Z,97912.59
2022-10-23T02:04:57.159Z,97911.64
2022-10-23T02:07:25.235Z,97916.42
2022-10-23T02:09:53.716Z,97922.47
2022-10-23T02:12:37.529Z,97927.51
2022-10-23T02:15:33.478Z,97931.48
2022-10-23T02:18:04.825Z,97936.14
2022-10-23T02:20:41.656Z,97933.84
2022-10-23T02:23:09.570Z,97932.95
2022-10-23T02:25:46.353Z,97933.27
2022-10-23T02:28:19.644Z,97944.86
2022-10-23T02:30:50.732Z,97950.51
2022-10-23T02:33:19.990Z,97953.58
2022-10-23T02:35:49.284Z,97961.17
2022-10-23T02:38:34.679Z,97960.05
2022-10-23T02:41:17.895Z,97963.83
2022-10-23T02:44:13.174Z,97973.71
2022-10-23T02:46:50.286Z,97984.39
2022-10-23T02:49:48.765Z,97988.81
2022-10-23T02:52:30.866Z,97994.89
2022-10-23T02:55:08.668Z,97995.35
2022-10-23T02:57:53.436Z,97998.66
2022-10-23T03:00:23.995Z,98003.98
2022-10-23T03:03:04.731Z,98011.07
2022-10-23T03:05:37.820Z,98011.61
2022-10-23T03:08:09.673Z,98014.73
2022-10-23T03:10:38.361Z,98021.32
2022-10-23T03:13:08.183Z,98024.65
2022-10-23T03:15:41.685Z,98029.16
2022-10-23T03:18:13.231Z,98034.09
2022-10-23T03:20:42.231Z,98032.00
2022-10-23T03:23:13.090Z,98031.09
2022-10-23T03:25:41.133Z,98030.44
2022-10-23T03:28:09.026Z,98035.00
2022-10-23T03:30:37.204Z,98037.05
2022-10-23T03:33:05.143Z,98037.02
2022-10-23T03:35:35.423Z,98041.12
2022-10-23T03:38:03.954Z,98040.76
2022-10-23T03:40:32.028Z,98041.09
2022-10-23T03:42:59.889Z,98046.60
2022-10-23T03:45:31.239Z,98047.73
2022-10-23T03:47:59.208Z,98048.78
2022-10-23T03:50:27.151Z,98052.31
2022-10-23T03:52:55.248Z,98054.71
2022-10-23T03:55:23.287Z,98059.91
2022-10-23T03:57:51.757Z,98061.86
2022-10-23T04:00:21.816Z,98062.88
2022-10-23T04:02:49.899Z,98060.33
2022-10-23T04:05:18.168Z,98065.65
2022-10-23T04:07:52.550Z,98074.47
2022-10-23T04:10:20.665Z,98080.36
2022-10-23T04:12:48.733Z,98086.58
2022-10-23T04:15:16.810Z,98088.60
2022-10-23T04:17:47.234Z,98091.08
2022-10-23T04:20:15.404Z,98091.49
2022-10-23T04:22:43.676Z,98090.45
2022-10-23T04:25:13.294Z,98093.59
2022-10-23T04:27:41.562Z,98101.02
2022-10-23T04:30:10.733Z,98099.91
2022-10-23T04:32:39.453Z,98099.98
2022-10-23T04:35:08.137Z,98104.60
2022-10-23T04:37:36.208Z,98105.42
2022-10-23T04:40:04.696Z,98105.41
2022-10-23T04:42:36.346Z,98109.14
2022-10-23T04:45:05.813Z,98110.84
2022-10-23T04:47:33.845Z,98111.57
2022-10-23T04:50:01.901Z,98112.58
2022-10-23T04:52:48.708Z,98115.88
2022-10-23T04:55:35.181Z,98119.56
2022-10-23T04:58:27.281Z,98119.56
2022-10-23T05:00:58.680Z,98122.27
2022-10-23T05:03:27.794Z,98122.73
2022-10-23T05:05:57.111Z,98127.32
2022-10-23T05:08:25.426Z,98135.18
2022-10-23T05:11:05.932Z,98142.19
2022-10-23T05:13:39.382Z,98144.00
2022-10-23T05:16:07.296Z,98139.00
2022-10-23T05:18:35.267Z,98145.98
2022-10-23T05:21:09.140Z,98149.91
2022-10-23T05:23:41.041Z,98153.98
2022-10-23T05:26:09.111Z,98154.69
2022-10-23T05:28:38.006Z,98158.13
2022-10-23T05:31:06.681Z,98162.44
2022-10-23T05:33:38.341Z,98168.86
2022-10-23T05:36:07.525Z,98173.77
2022-10-23T05:38:36.308Z,98176.14
2022-10-23T05:41:11.556Z,98180.30
2022-10-23T05:43:39.424Z,98179.46
2022-10-23T05:46:11.295Z,98182.38
2022-10-23T05:48:45.306Z,98189.27
2022-10-23T05:51:22.510Z,98192.84
2022-10-23T05:54:13.090Z,98196.58
2022-10-23T05:56:59.389Z,98199.86
2022-10-23T05:59:43.130Z,98207.19
2022-10-23T06:02:20.257Z,98212.63
2022-10-23T06:04:52.994Z,98213.86
2022-10-23T06:07:47.142Z,98217.48
2022-10-23T06:10:15.354Z,98219.75
2022-10-23T06:12:45.990Z,98221.16
2022-10-23T06:15:17.033Z,98225.14
2022-10-23T06:18:08.138Z,98227.79
2022-10-23T06:20:39.589Z,98229.65
2022-10-23T06:23:11.551Z,98234.67
2022-10-23T06:26:06.356Z,98239.11
2022-10-23T06:28:41.391Z,98240.10
2022-10-23T06:31:13.253Z,98242.50
2022-10-23T06:33:42.244Z,98247.65
2022-10-23T06:36:10.911Z,98246.48
2022-10-23T06:38:40.885Z,98250.12
2022-10-23T06:41:22.538Z,98252.16
2022-10-23T06:43:55.018Z,98252.63
2022-10-23T06:46:42.542Z,98254.14
2022-10-23T06:49:30.785Z,98254.14
2022-10-23T06:51:59.569Z,98252.70
2022-10-23T06:54:27.701Z,98254.82
2022-10-23T06:57:10.976Z,98257.52
2022-10-23T06:59:46.618Z,98257.60
2022-10-23T07:02:14.905Z,98261.27
2022-10-23T07:04:43.072Z,98260.79
2022-10-23T07:07:15.547Z,98264.55
2022-10-23T07:09:48.713Z,98264.12
2022-10-23T07:12:39.743Z,98269.02
2022-10-23T07:15:27.796Z,98273.11
2022-10-23T07:17:56.212Z,98270.39
2022-10-23T07:20:24.244Z,98271.68
2022-10-23T07:22:54.619Z,98276.30
2022-10-23T07:25:41.376Z,98275.83
2022-10-23T07:28:09.865Z,98275.48
2022-10-23T07:30:37.833Z,98277.44
2022-10-23T07:33:05.843Z,98282.17
2022-10-23T07:35:39.914Z,98282.33
2022-10-23T07:38:14.150Z,98283.48
2022-10-23T07:40:47.520Z,98288.42
2022-10-23T07:43:18.752Z,98290.22
2022-10-23T07:45:48.996Z,98288.87
2022-10-23T07:48:27.915Z,98290.70
2022-10-23T07:51:08.555Z,98289.92
2022-10-23T07:53:40.346Z,98292.95
2022-10-23T07:56:31.887Z,98299.98
2022-10-23T07:59:18.567Z,98297.21
2022-10-23T08:01:53.852Z,98299.86
2022-10-23T08:04:25.463Z,98295.09
2022-10-23T08:06:58.764Z,98295.27
2022-10-23T08:09:26.713Z,98298.99
2022-10-23T08:11:54.802Z,98300.77
2022-10-23T08:14:24.288Z,98306.84
2022-10-23T08:16:52.327Z,98309.74
2022-10-23T08:19:20.350Z,98311.51
2022-10-23T08:21:50.075Z,98312.61
2022-10-23T08:24:18.135Z,98315.03
2022-10-23T08:26:50.102Z,98323.21
2022-10-23T08:29:19.067Z,98325.85
2022-10-23T08:31:47.371Z,98327.20
2022-10-23T08:34:27.929Z,98329.75
2022-10-23T08:36:56.001Z,98329.95
2022-10-23T08:39:24.483Z,98332.44
2022-10-23T08:42:27.020Z,98337.75
2022-10-23T08:44:59.854Z,98340.81
2022-10-23T08:47:41.333Z,98342.86
2022-10-23T08:50:40.639Z,98340.95
2022-10-23T08:53:25.706Z,98346.56
2022-10-23T08:56:01.767Z,98351.92
2022-10-23T08:58:40.766Z,98354.10
2022-10-23T09:01:44.315Z,98355.92
2022-10-23T09:04:14.426Z,98355.73
2022-10-23T09:06:54.314Z,98359.78
2022-10-23T09:09:51.419Z,98360.81
2022-10-23T09:12:28.299Z,98361.50
2022-10-23T09:15:21.969Z,98363.30
2022-10-23T09:17:57.829Z,98362.66
2022-10-23T09:20:34.595Z,98360.41
2022-10-23T09:23:17.116Z,98361.67
2022-10-23T09:25:46.873Z,98357.87
2022-10-23T09:28:23.603Z,98355.50
2022-10-23T09:30:52.489Z,98357.25
2022-10-23T09:33:25.269Z,98355.85
2022-10-23T09:36:05.227Z,98359.66
2022-10-23T09:38:37.479Z,98363.51
2022-10-23T09:41:14.169Z,98365.41
2022-10-23T09:43:42.032Z,98364.30
2022-10-23T09:46:11.991Z,98365.45
2022-10-23T09:48:42.565Z,98366.62
2022-10-23T09:51:21.510Z,98367.42
2022-10-23T09:53:57.154Z,98365.95
2022-10-23T09:56:25.326Z,98365.55
2022-10-23T09:59:13.477Z,98363.85
2022-10-23T10:02:28.953Z,98365.70
2022-10-23T10:05:32.157Z,98360.52
2022-10-23T10:08:20.407Z,98358.82
2022-10-23T10:11:10.795Z,98359.79
2022-10-23T10:13:59.444Z,98359.62
2022-10-23T10:16:48.850Z,98357.53
2022-10-23T10:19:36.860Z,98358.19
2022-10-23T10:22:25.101Z,98365.94
2022-10-23T10:24:58.088Z,98370.69
2022-10-23T10:28:03.643Z,98368.98
2022-10-23T10:30:59.667Z,98367.71
2022-10-23T10:33:27.548Z,98369.48
2022-10-23T10:36:11.385Z,98369.48
2022-10-23T10:38:57.467Z,98369.97
2022-10-23T10:42:04.153Z,98367.84
2022-10-23T10:44:50.547Z,98371.34
2022-10-23T10:47:47.651Z,98368.28
2022-10-23T10:50:55.590Z,98364.57
2022-10-23T10:53:50.820Z,98356.11
2022-10-23T10:56:22.163Z,98352.47
2022-10-23T10:58:58.119Z,98349.92
2022-10-23T11:01:30.973Z,98351.23
2022-10-23T11:04:11.676Z,98354.66
2022-10-23T11:06:41.797Z,98354.75
2022-10-23T11:09:29.329Z,98357.90
2022-10-23T11:11:59.009Z,98361.21
2022-10-23T11:14:29.785Z,98364.55
2022-10-23T11:16:57.942Z,98362.91
2022-10-23T11:19:29.687Z,98361.95
2022-10-23T11:22:09.850Z,98364.67
2022-10-23T11:25:02.607Z,98360.94
2022-10-23T11:28:04.374Z,98356.17
2022-10-23T11:30:54.757Z,98353.49
2022-10-23T11:33:49.060Z,98357.21
2022-10-23T11:36:16.918Z,98362.61
2022-10-23T11:38:51.063Z,98370.39
2022-10-23T11:41:23.677Z,98376.63
2022-10-23T11:44:01.455Z,98377.15
2022-10-23T11:46:35.521Z,98377.31
2022-10-23T11:49:06.544Z,98377.99
2022-10-23T11:51:41.602Z,98381.33
2022-10-23T11:54:15.518Z,98376.33
2022-10-23T11:57:10.559Z,98378.23
2022-10-23T11:59:45.033Z,98383.23
2022-10-23T12:02:28.406Z,98387.59
2022-10-23T12:04:56.841Z,98384.11
2022-10-23T12:07:30.954Z,98383.70
2022-10-23T12:10:25.240Z,98379.79
2022-10-23T12:13:04.069Z,98378.46
2022-10-23T12:15:35.378Z,98375.85
2022-10-23T12:18:15.933Z,98376.31
2022-10-23T12:20:54.390Z,98379.52
2022-10-23T12:23:43.184Z,98378.90
2022-10-23T12:26:16.747Z,98377.88
2022-10-23T12:29:02.946Z,98379.10
2022-10-23T12:32:00.304Z,98375.92
2022-10-23T12:34:47.019Z,98381.84
2022-10-23T12:37:39.764Z,98386.66
2022-10-23T12:40:10.223Z,98388.70
2022-10-23T12:42:38.776Z,98399.48
2022-10-23T12:45:43.542Z,98402.82
2022-10-23T12:48:23.066Z,98399.34
2022-10-23T12:50:54.706Z,98396.84
2022-10-23T12:53:24.199Z,98390.73
2022-10-23T12:56:05.296Z,98389.06
2022-10-23T12:58:35.318Z,98385.61
2022-10-23T13:01:07.262Z,98389.20
2022-10-23T13:03:36.262Z,98390.35
2022-10-23T13:06:06.583Z,98395.70
2022-10-23T13:08:42.207Z,98395.12
2022-10-23T13:11:24.703Z,98392.80
2022-10-23T13:13:53.435Z,98393.16
2022-10-23T13:16:23.994Z,98392.89
2022-10-23T13:18:52.209Z,98395.14
2022-10-23T13:21:26.619Z,98399.42
2022-10-23T13:23:55.352Z,98398.19
2022-10-23T13:26:32.986Z,98397.72
2022-10-23T13:29:11.453Z,98396.29
2022-10-23T13:31:39.424Z,98393.15
2022-10-23T13:34:18.455Z,98399.69
2022-10-23T13:36:59.632Z,98406.28
2022-10-23T13:39:36.308Z,98407.23
2022-10-23T13:42:14.318Z,98413.48
2022-10-23T13:44:43.266Z,98416.35
2022-10-23T13:47:16.041Z,98415.37
2022-10-23T13:49:44.064Z,98417.27
2022-10-23T13:52:14.897Z,98421.69
2022-10-23T13:54:43.734Z,98419.40
2022-10-23T13:57:14.933Z,98418.65
2022-10-23T13:59:43.103Z,98417.15
2022-10-23T14:02:19.196Z,98419.74
2022-10-23T14:04:49.021Z,98417.90
2022-10-23T14:07:17.049Z,98421.21
2022-10-23T14:09:45.322Z,98419.63
2022-10-23T14:12:13.829Z,98416.85
2022-10-23T14:14:41.883Z,98417.59
2022-10-23T14:17:09.850Z,98420.89
2022-10-23T14:22:10.906Z,98418.10
2022-10-23T14:24:38.873Z,98414.05
2022-10-23T14:27:06.768Z,98418.23
2022-10-23T14:29:34.692Z,98417.34
2022-10-23T14:32:02.689Z,98411.21
2022-10-23T14:34:30.960Z,98404.20
2022-10-23T14:37:11.064Z,98409.05
2022-10-23T14:39:39.185Z,98404.98
2022-10-23T14:42:07.157Z,98405.17
2022-10-23T14:44:35.332Z,98406.08
2022-10-23T14:47:03.435Z,98403.15
2022-10-23T14:49:32.287Z,98406.64
2022-10-23T14:52:00.200Z,98407.88
2022-10-23T14:54:29.564Z,98406.85
2022-10-23T14:56:57.528Z,98412.35
2022-10-23T14:59:25.425Z,98415.84
2022-10-23T15:04:23.183Z,98417.18
2022-10-23T15:06:51.561Z,98422.35
2022-10-23T15:09:20.550Z,98420.80
2022-10-23T15:11:48.523Z,98418.51
2022-10-23T15:14:16.601Z,98418.27
2022-10-23T15:16:44.767Z,98417.32
2022-10-23T15:19:18.585Z,98418.92
2022-10-23T15:21:48.290Z,98417.92
2022-10-23T15:24:17.896Z,98414.89
2022-10-23T15:26:45.861Z,98409.63
2022-10-23T15:29:14.978Z,98410.30
2022-10-23T15:31:48.766Z,98408.52
2022-10-23T15:34:19.411Z,98411.02
2022-10-23T15:36:48.696Z,98413.48
2022-10-23T15:39:20.249Z,98414.58
2022-10-23T15:41:51.597Z,98412.30
2022-10-23T15:44:21.608Z,98413.52
2022-10-23T15:46:50.719Z,98416.99
2022-10-23T15:49:19.196Z,98411.86
2022-10-23T15:51:47.479Z,98410.17
2022-10-23T15:54:18.974Z,98412.87
2022-10-23T15:56:49.661Z,98414.20
2022-10-23T15:59:19.369Z,98410.50
2022-10-23T16:01:47.964Z,98414.54
2022-10-23T16:04:16.941Z,98412.45
2022-10-23T16:06:45.536Z,98417.38
2022-10-23T16:09:14.522Z,98415.92
2022-10-23T16:11:43.554Z,98423.13
2022-10-23T16:14:17.479Z,98423.98
2022-10-23T16:16:45.498Z,98424.05
2022-10-23T16:19:13.462Z,98427.59
2022-10-23T16:21:42.212Z,98429.24
2022-10-23T16:24:10.939Z,98434.41
2022-10-23T16:26:39.213Z,98440.45
2022-10-23T16:29:09.025Z,98440.15
2022-10-23T16:31:37.604Z,98441.56
2022-10-23T16:34:06.006Z,98448.33
2022-10-23T16:36:35.192Z,98451.92
2022-10-23T16:39:21.470Z,98453.81
2022-10-23T16:42:08.077Z,98453.95
2022-10-23T16:44:54.910Z,98457.67
2022-10-23T16:47:22.874Z,98463.48
2022-10-23T16:49:51.056Z,98463.23
2022-10-23T16:52:18.918Z,98469.35
2022-10-23T16:54:46.992Z,98473.74
2022-10-23T16:57:14.957Z,98476.23
2022-10-23T16:59:44.023Z,98475.45
2022-10-23T17:02:12.825Z,98482.75
2022-10-23T17:04:40.856Z,98482.89
2022-10-23T17:07:09.355Z,98482.09
2022-10-23T17:09:38.597Z,98481.98
2022-10-23T17:12:07.021Z,98480.38
2022-10-23T17:14:34.944Z,98479.25
2022-10-23T17:17:03.839Z,98483.38
2022-10-23T17:19:44.177Z,98481.52
2022-10-23T17:22:13.922Z,98480.64
2022-10-23T17:24:45.145Z,98484.05
2022-10-23T17:27:15.986Z,98487.90
2022-10-23T17:29:44.131Z,98490.56
2022-10-23T17:32:12.083Z,98493.39
2022-10-23T17:34:40.105Z,98499.94
2022-10-23T17:37:09.196Z,98497.21
2022-10-23T17:39:37.092Z,98498.34
2022-10-23T17:42:05.029Z,98496.19
2022-10-23T17:44:33.212Z,98498.80
2022-10-23T17:47:01.181Z,98500.14
2022-10-23T17:49:29.148Z,98497.48
2022-10-23T17:51:58.048Z,98493.85
2022-10-23T17:54:27.035Z,98494.79
2022-10-23T17:56:56.437Z,98499.25
2022-10-23T17:59:24.611Z,98493.33
2022-10-23T18:01:52.649Z,98490.75
2022-10-23T18:04:21.678Z,98490.81
2022-10-23T18:06:52.942Z,98486.35
2022-10-23T18:09:22.430Z,98488.05
2022-10-23T18:11:50.496Z,98493.55
2022-10-23T18:14:21.489Z,98493.87
2022-10-23T18:16:51.353Z,98492.23
2022-10-23T18:19:19.934Z,98486.77
2022-10-23T18:21:49.033Z,98485.98
2022-10-23T18:24:17.823Z,98483.27
2022-10-23T18:26:48.285Z,98480.52
2022-10-23T18:29:17.651Z,98479.02
2022-10-23T18:31:48.331Z,98480.52
2022-10-23T18:34:24.855Z,98477.02
2022-10-23T18:36:54.349Z,98474.21
2022-10-23T18:39:24.988Z,98475.36
2022-10-23T18:41:56.623Z,98476.50
2022-10-23T18:44:28.861Z,98475.06
2022-10-23T18:46:58.835Z,98478.30
2022-10-23T18:49:27.522Z,98476.21
2022-10-23T18:51:55.595Z,98473.83
2022-10-23T18:54:23.560Z,98470.70
2022-10-23T18:56:51.536Z,98467.27
2022-10-23T18:59:20.824Z,98462.07
2022-10-23T19:01:49.965Z,98457.20
2022-10-23T19:04:18.918Z,98457.72
2022-10-23T19:06:48.117Z,98459.98
2022-10-23T19:09:16.699Z,98459.24
2022-10-23T19:11:46.208Z,98460.95
2022-10-23T19:14:14.176Z,98459.80
2022-10-23T19:17:11.224Z,98460.92
2022-10-23T19:19:47.088Z,98456.47
2022-10-23T19:22:17.226Z,98452.76
2022-10-23T19:24:48.984Z,98451.83
2022-10-23T19:27:19.411Z,98451.77
2022-10-23T19:29:49.841Z,98448.48
2022-10-23T19:32:17.915Z,98444.87
2022-10-23T19:34:45.967Z,98449.33
2022-10-23T19:39:47.422Z,98448.42
2022-10-23T19:42:15.399Z,98452.20
2022-10-23T19:44:43.361Z,98456.23
2022-10-23T19:47:11.232Z,98458.38
2022-10-23T19:49:39.397Z,98462.60
2022-10-23T19:52:07.474Z,98461.95
2022-10-23T19:54:36.080Z,98462.20
2022-10-23T19:57:04.280Z,98465.23
2022-10-23T19:59:32.215Z,98461.95
2022-10-23T20:02:00.700Z,98458.35
2022-10-23T20:04:31.826Z,98455.06
2022-10-23T20:06:59.797Z,98453.14
2022-10-23T20:09:27.874Z,98449.11
2022-10-23T20:11:55.842Z,98452.58
2022-10-23T20:14:23.814Z,98455.52
2022-10-23T20:16:55.714Z,98460.95
2022-10-23T20:19:24.262Z,98464.59
2022-10-23T20:21:52.223Z,98465.48
2022-10-23T20:24:21.380Z,98465.69
2022-10-23T20:26:54.310Z,98463.83
2022-10-23T20:29:24.763Z,98459.46
2022-10-23T20:31:53.212Z,98454.95
2022-10-23T20:34:21.392Z,98449.54
2022-10-23T20:36:49.987Z,98454.52
2022-10-23T20:39:26.857Z,98451.76
2022-10-23T20:41:56.270Z,98449.21
2022-10-23T20:44:24.737Z,98450.15
2022-10-23T20:46:53.322Z,98443.53
2022-10-23T20:49:22.523Z,98442.17
2022-10-23T20:51:54.905Z,98442.30
2022-10-23T20:54:26.143Z,98440.42
2022-10-23T20:56:54.715Z,98438.41
2022-10-23T20:59:22.844Z,98438.31
2022-10-23T21:01:53.270Z,98438.27
2022-10-23T21:04:25.228Z,98441.55
2022-10-23T21:07:11.630Z,98442.20
2022-10-23T21:09:40.300Z,98443.61
2022-10-23T21:12:09.312Z,98446.88
2022-10-23T21:14:37.340Z,98450.46
2022-10-23T21:17:05.406Z,98457.34
2022-10-23T21:19:33.372Z,98458.51
2022-10-23T21:22:01.343Z,98456.73
2022-10-23T21:24:29.317Z,98459.42
2022-10-23T21:26:57.182Z,98459.77
2022-10-23T21:29:25.160Z,98461.35
2022-10-23T21:31:56.093Z,98459.66
2022-10-23T21:34:25.286Z,98464.19
2022-10-23T21:37:12.372Z,98469.25
2022-10-23T21:39:42.428Z,98467.23
2022-10-23T21:42:11.744Z,98469.95
2022-10-23T21:44:40.209Z,98470.95
2022-10-23T21:47:08.385Z,98470.98
2022-10-23T21:49:36.351Z,98472.47
2022-10-23T21:52:05.041Z,98470.19
2022-10-23T21:54:33.318Z,98472.05
2022-10-23T21:57:03.394Z,98477.12
2022-10-23T21:59:35.476Z,98478.99
2022-10-23T22:02:04.331Z,98488.59
2022-10-23T22:04:32.976Z,98491.46
2022-10-23T22:07:02.859Z,98485.66
2022-10-23T22:09:32.500Z,98479.05
2022-10-23T22:12:01.186Z,98475.67
2022-10-23T22:14:29.362Z,98474.40
2022-10-23T22:16:57.887Z,98473.54
2022-10-23T22:19:25.842Z,98472.84
2022-10-23T22:21:54.396Z,98469.02
2022-10-23T22:24:22.467Z,98464.06
2022-10-23T22:26:53.656Z,98461.39
2022-10-23T22:29:24.801Z,98462.18
2022-10-23T22:31:53.142Z,98464.03
2022-10-23T22:34:51.420Z,98464.55
2022-10-23T22:37:14.154Z,98462.14
2022-10-23T22:39:42.334Z,98462.13
2022-10-23T22:42:10.608Z,98459.87
2022-10-23T22:44:38.575Z,98461.21
2022-10-23T22:47:07.063Z,98462.38
2022-10-23T22:49:35.344Z,98458.02
2022-10-23T22:52:03.414Z,98456.77
2022-10-23T22:54:31.784Z,98459.50
2022-10-23T22:56:59.876Z,98456.50
2022-10-23T22:59:27.933Z,98444.46
2022-10-23T23:01:56.212Z,98439.38
2022-10-23T23:04:39.739Z,98437.67
2022-10-23T23:07:10.372Z,98448.26
2022-10-23T23:09:42.854Z,98451.83
2022-10-23T23:12:13.141Z,98448.10
2022-10-23T23:14:41.954Z,98443.71
2022-10-23T23:17:10.549Z,98444.55
2022-10-23T23:19:39.231Z,98447.97
2022-10-23T23:22:07.523Z,98450.84
2022-10-23T23:24:35.889Z,98446.45
2022-10-23T23:27:03.810Z,98438.25
2022-10-23T23:29:32.442Z,98433.00
2022-10-23T23:32:00.613Z,98431.20
2022-10-23T23:34:28.835Z,98427.48
2022-10-23T23:36:56.725Z,98431.55
2022-10-23T23:39:26.273Z,98442.75
2022-10-23T23:41:54.342Z,98452.61
2022-10-23T23:44:22.301Z,98457.70
2022-10-23T23:46:50.284Z,98466.35
2022-10-23T23:49:18.169Z,98462.10
2022-10-23T23:51:46.109Z,98462.27
2022-10-23T23:54:14.496Z,98463.94
2022-10-23T23:56:42.336Z,98462.00
2022-10-23T23:59:10.222Z,98462.05
